Time;durP1;ratioP1;P1;durP2;ratioP2;P2;SDS_P1;SDS_P2;PMS_P1;PMS_P2;Temp;Humidity;BMP_temperature;BMP_pressure;BME280_temperature;BME280_humidity;BME280_pressure;Samples;Min_cycle;Max_cycle;Signal;HPM_P1;HPM_P2
2024/02/05 00:00:04;;;;;;;13.57;2.55;;;10.70;99.90;;;;;;5081281;28;20043;-65
2024/02/05 00:02:30;;;;;;;14.02;2.28;;;10.70;99.90;;;;;;5076810;28;20439;-65
2024/02/05 00:04:56;;;;;;;13.60;2.95;;;10.60;99.90;;;;;;5109573;27;20053;-65
2024/02/05 00:07:21;;;;;;;17.98;3.17;;;10.60;99.90;;;;;;5096615;28;20051;-65
2024/02/05 00:09:47;;;;;;;20.05;3.67;;;10.70;99.90;;;;;;5109462;27;20039;-65
2024/02/05 00:12:14;;;;;;;12.73;2.70;;;10.60;99.90;;;;;;5095854;28;20043;-65
2024/02/05 00:14:40;;;;;;;13.90;2.95;;;10.70;99.90;;;;;;5092999;28;20075;-65
2024/02/05 00:17:06;;;;;;;16.02;3.90;;;10.60;99.90;;;;;;5079307;28;20036;-65
2024/02/05 00:19:31;;;;;;;15.40;3.17;;;10.60;99.90;;;;;;5076316;28;20039;-65
2024/02/05 00:21:57;;;;;;;15.93;3.53;;;10.60;99.90;;;;;;5076160;28;20209;-65
2024/02/05 00:24:23;;;;;;;16.05;3.20;;;10.60;99.90;;;;;;5075378;28;20040;-65
2024/02/05 00:26:49;;;;;;;17.08;2.58;;;10.60;99.90;;;;;;5077593;28;20128;-65
2024/02/05 00:29:15;;;;;;;17.77;3.33;;;10.60;99.90;;;;;;5079346;28;20096;-65
2024/02/05 00:31:40;;;;;;;20.30;4.13;;;10.60;99.90;;;;;;5079755;28;20035;-65
2024/02/05 00:34:07;;;;;;;15.93;3.40;;;10.60;99.90;;;;;;5079974;28;20035;-65
2024/02/05 00:36:32;;;;;;;16.73;3.05;;;10.60;99.90;;;;;;5096449;28;20050;-65
2024/02/05 00:38:58;;;;;;;19.65;3.65;;;10.60;99.90;;;;;;5082555;28;20032;-65
2024/02/05 00:41:24;;;;;;;17.42;3.70;;;10.60;99.90;;;;;;5098851;28;20040;-65
2024/02/05 00:43:49;;;;;;;17.98;3.55;;;10.60;99.90;;;;;;5107433;27;20464;-65
2024/02/05 00:46:22;;;;;;;14.40;2.90;;;10.70;99.90;;;;;;5078776;28;20044;-65
2024/02/05 00:48:49;;;;;;;16.98;3.25;;;10.60;99.90;;;;;;5076161;28;20486;-65
2024/02/05 00:51:14;;;;;;;17.25;3.05;;;10.60;99.90;;;;;;5074346;28;20179;-65
2024/02/05 00:53:40;;;;;;;15.35;3.13;;;10.60;99.90;;;;;;5095420;28;20123;-65
2024/02/05 00:56:06;;;;;;;21.15;4.75;;;10.60;99.90;;;;;;5099507;28;20120;-65
2024/02/05 00:58:31;;;;;;;15.50;2.85;;;10.60;99.90;;;;;;5078766;28;20103;-65
2024/02/05 01:00:57;;;;;;;13.85;2.92;;;10.60;99.90;;;;;;5095608;28;20461;-65
2024/02/05 01:03:22;;;;;;;16.70;4.50;;;10.50;99.90;;;;;;5095961;28;20054;-65
2024/02/05 01:05:48;;;;;;;20.25;4.55;;;10.60;99.90;;;;;;5080082;28;20554;-65
2024/02/05 01:08:14;;;;;;;14.35;3.35;;;10.60;99.90;;;;;;5096477;28;20124;-65
2024/02/05 01:10:39;;;;;;;18.42;3.42;;;10.60;99.90;;;;;;5078324;28;20036;-65
2024/02/05 01:13:05;;;;;;;20.27;4.82;;;10.70;99.90;;;;;;5076624;28;20302;-65
2024/02/05 01:15:32;;;;;;;18.80;4.20;;;10.60;99.90;;;;;;5093656;28;20129;-65
2024/02/05 01:17:57;;;;;;;16.73;3.70;;;10.60;99.90;;;;;;5092774;28;20055;-65
2024/02/05 01:20:23;;;;;;;23.17;4.38;;;10.60;99.90;;;;;;5094823;28;20394;-65
2024/02/05 01:22:49;;;;;;;19.67;4.25;;;10.60;99.90;;;;;;5077938;28;20040;-65
2024/02/05 01:25:15;;;;;;;17.55;3.47;;;10.60;99.90;;;;;;5076711;28;20088;-65
2024/02/05 01:27:41;;;;;;;25.98;3.97;;;10.60;99.90;;;;;;5112484;27;20036;-65
2024/02/05 01:30:08;;;;;;;26.05;5.40;;;10.60;99.90;;;;;;5092224;28;20485;-66
2024/02/05 01:32:34;;;;;;;23.55;3.60;;;10.60;99.90;;;;;;5093509;28;20054;-65
2024/02/05 01:35:00;;;;;;;16.50;3.95;;;10.60;99.90;;;;;;5073038;28;20027;-65
2024/02/05 01:37:26;;;;;;;18.80;4.85;;;10.60;99.90;;;;;;5107026;27;20556;-65
2024/02/05 01:39:51;;;;;;;20.48;4.00;;;10.60;99.90;;;;;;5076789;28;20035;-65
2024/02/05 01:42:17;;;;;;;20.25;5.05;;;10.60;99.90;;;;;;5096811;28;20036;-65
2024/02/05 01:44:43;;;;;;;20.23;3.70;;;10.60;99.90;;;;;;5075188;28;20048;-65
2024/02/05 01:47:10;;;;;;;16.67;3.58;;;10.60;99.90;;;;;;5079749;28;20036;-65
2024/02/05 01:49:37;;;;;;;17.48;4.22;;;10.80;99.90;;;;;;5076199;28;20036;-65
2024/02/05 01:52:07;;;;;;;23.38;4.43;;;10.50;99.90;;;;;;5076440;28;20048;-65
2024/02/05 01:54:33;;;;;;;18.85;3.67;;;10.50;99.90;;;;;;5092844;28;20413;-65
2024/02/05 01:57:00;;;;;;;17.67;4.13;;;10.60;99.90;;;;;;5073905;28;20085;-65
2024/02/05 01:59:27;;;;;;;19.77;4.07;;;10.50;99.90;;;;;;5093608;28;20078;-65
2024/02/05 02:01:52;;;;;;;21.70;4.50;;;10.60;99.90;;;;;;5094303;28;20478;-65
2024/02/05 02:04:18;;;;;;;16.80;3.40;;;10.50;99.90;;;;;;5090454;28;20085;-65
2024/02/05 02:06:44;;;;;;;25.05;4.75;;;10.50;99.90;;;;;;5094350;28;20478;-65
2024/02/05 02:09:13;;;;;;;22.80;4.70;;;10.50;99.90;;;;;;5077132;28;20131;-65
2024/02/05 02:11:42;;;;;;;14.88;4.30;;;10.50;99.90;;;;;;5075692;28;20040;-65
2024/02/05 02:14:08;;;;;;;24.75;4.35;;;10.50;99.90;;;;;;5077103;28;20039;-65
2024/02/05 02:16:35;;;;;;;18.73;4.07;;;10.50;99.90;;;;;;5073026;28;20048;-65
2024/02/05 02:19:05;;;;;;;22.35;5.65;;;10.50;99.90;;;;;;5075815;28;20046;-65
2024/02/05 02:21:33;;;;;;;20.77;4.45;;;10.50;99.90;;;;;;5093539;28;20040;-66
2024/02/05 02:23:59;;;;;;;20.50;5.07;;;10.50;99.90;;;;;;5091410;28;20044;-65
2024/02/05 02:26:26;;;;;;;22.67;4.53;;;10.40;99.90;;;;;;5076779;28;20040;-65
2024/02/05 02:28:52;;;;;;;27.67;7.10;;;10.40;99.90;;;;;;5109079;27;20040;-65
2024/02/05 02:31:22;;;;;;;22.13;4.20;;;10.40;99.90;;;;;;5092676;28;20029;-65
2024/02/05 02:34:01;;;;;;;21.85;4.68;;;10.40;99.90;;;;;;5091004;28;20115;-65
2024/02/05 02:36:33;;;;;;;20.83;4.82;;;10.30;99.90;;;;;;5093830;28;20158;-65
2024/02/05 02:39:17;;;;;;;28.33;4.97;;;10.40;99.90;;;;;;5075078;28;20081;-65
2024/02/05 02:41:43;;;;;;;28.80;5.78;;;10.40;99.90;;;;;;5072317;28;20083;-65
2024/02/05 02:44:10;;;;;;;25.17;5.45;;;10.40;99.90;;;;;;5071067;28;20075;-65
2024/02/05 02:46:36;;;;;;;20.77;5.35;;;10.30;99.90;;;;;;5073338;28;20047;-65
2024/02/05 02:49:02;;;;;;;24.90;4.88;;;10.40;99.90;;;;;;5071043;28;20039;-65
2024/02/05 02:51:28;;;;;;;26.25;5.43;;;10.30;99.90;;;;;;5096165;28;20031;-65
2024/02/05 02:53:53;;;;;;;19.52;5.07;;;10.30;99.90;;;;;;5092032;28;20113;-65
2024/02/05 02:56:19;;;;;;;27.38;5.22;;;10.30;99.90;;;;;;5096307;28;20040;-65
2024/02/05 02:58:45;;;;;;;25.55;5.85;;;10.30;99.90;;;;;;5095651;28;20031;-65
2024/02/05 03:01:10;;;;;;;27.17;5.63;;;10.30;99.90;;;;;;5097619;28;20040;-65
2024/02/05 03:03:36;;;;;;;24.83;5.28;;;10.30;99.90;;;;;;5097393;28;20118;-65
2024/02/05 03:06:02;;;;;;;20.77;5.13;;;10.30;99.90;;;;;;5082912;28;20047;-65
2024/02/05 03:08:27;;;;;;;27.63;5.18;;;10.30;99.90;;;;;;5094845;28;20089;-65
2024/02/05 03:10:53;;;;;;;26.38;6.03;;;10.30;99.90;;;;;;5096940;28;20055;-65
2024/02/05 03:13:19;;;;;;;22.77;5.40;;;10.30;99.90;;;;;;5095127;28;20036;-65
2024/02/05 03:15:45;;;;;;;26.17;5.43;;;10.20;99.90;;;;;;5109887;27;20055;-65
2024/02/05 03:18:11;;;;;;;28.23;4.40;;;10.30;99.90;;;;;;5095274;28;20028;-65
2024/02/05 03:20:38;;;;;;;26.10;5.38;;;10.20;99.90;;;;;;5099498;28;20024;-65
2024/02/05 03:23:06;;;;;;;20.52;5.32;;;10.20;99.90;;;;;;5094553;28;20041;-65
2024/02/05 03:25:35;;;;;;;25.55;5.07;;;10.20;99.90;;;;;;5076459;28;20051;-65
2024/02/05 03:28:02;;;;;;;31.05;6.32;;;10.20;99.90;;;;;;5109136;27;20064;-65
2024/02/05 03:30:29;;;;;;;27.75;4.95;;;10.20;99.90;;;;;;5078208;28;20047;-65
2024/02/05 03:32:55;;;;;;;31.00;6.43;;;10.10;99.90;;;;;;5115250;27;20051;-65
2024/02/05 03:35:21;;;;;;;27.30;6.38;;;10.10;99.90;;;;;;5096401;28;20440;-65
2024/02/05 03:37:47;;;;;;;24.27;4.90;;;10.10;99.90;;;;;;5093150;28;20043;-65
2024/02/05 03:40:13;;;;;;;22.70;6.00;;;10.00;99.90;;;;;;5079612;28;20036;-65
2024/02/05 03:42:38;;;;;;;25.52;5.38;;;10.00;99.90;;;;;;5110839;27;20039;-65
2024/02/05 03:45:04;;;;;;;23.33;5.35;;;10.10;99.90;;;;;;5097009;28;20075;-65
2024/02/05 03:47:30;;;;;;;29.13;6.35;;;10.00;99.90;;;;;;5096851;28;20444;-65
2024/02/05 03:49:56;;;;;;;21.98;5.22;;;9.90;99.90;;;;;;5097508;28;20036;-65
2024/02/05 03:52:22;;;;;;;27.80;5.45;;;9.90;99.90;;;;;;5078262;28;20067;-65
2024/02/05 03:54:47;;;;;;;25.80;6.97;;;9.90;99.90;;;;;;5098854;28;20089;-65
2024/02/05 03:57:14;;;;;;;24.13;5.70;;;9.90;99.90;;;;;;5095256;28;20043;-65
2024/02/05 03:59:39;;;;;;;22.20;5.53;;;9.90;99.90;;;;;;5097581;28;20025;-65
2024/02/05 04:02:06;;;;;;;26.73;5.30;;;9.90;99.90;;;;;;5096202;28;20050;-65
2024/02/05 04:04:32;;;;;;;23.58;4.97;;;9.80;99.90;;;;;;5111319;27;20164;-65
2024/02/05 04:06:58;;;;;;;29.25;6.97;;;9.80;99.90;;;;;;5093508;28;20036;-65
2024/02/05 04:09:23;;;;;;;26.80;6.15;;;9.70;99.90;;;;;;5094363;28;20047;-65
2024/02/05 04:11:50;;;;;;;26.13;6.60;;;9.80;99.90;;;;;;5077383;28;20032;-65
2024/02/05 04:14:15;;;;;;;30.67;6.35;;;9.70;99.90;;;;;;5094062;28;20258;-65
2024/02/05 04:16:41;;;;;;;28.95;6.78;;;9.70;99.90;;;;;;5098342;28;20031;-65
2024/02/05 04:19:07;;;;;;;24.25;5.10;;;9.70;99.90;;;;;;5094377;28;20111;-65
2024/02/05 04:21:32;;;;;;;26.70;5.68;;;9.60;99.90;;;;;;5079717;28;20044;-65
2024/02/05 04:23:58;;;;;;;27.02;4.93;;;9.60;99.90;;;;;;5093767;28;20083;-65
2024/02/05 04:26:23;;;;;;;22.77;5.70;;;9.60;99.90;;;;;;5078751;28;20093;-65
2024/02/05 04:28:49;;;;;;;29.98;6.47;;;9.70;99.90;;;;;;5093947;28;20255;-65
2024/02/05 04:31:15;;;;;;;31.10;6.30;;;9.70;99.90;;;;;;5092253;28;20043;-65
2024/02/05 04:33:41;;;;;;;34.03;5.95;;;9.70;99.90;;;;;;5090902;28;20028;-65
2024/02/05 04:36:12;;;;;;;24.83;7.45;;;9.70;99.90;;;;;;5079878;28;20047;-65
2024/02/05 04:38:37;;;;;;;28.30;6.05;;;9.70;99.90;;;;;;5094401;28;20066;-65
2024/02/05 04:41:03;;;;;;;25.00;5.28;;;9.70;99.90;;;;;;5092953;28;20470;-65
2024/02/05 04:43:28;;;;;;;29.48;5.78;;;9.70;99.90;;;;;;5094464;28;20147;-65
2024/02/05 04:45:54;;;;;;;24.08;5.05;;;9.60;99.90;;;;;;5096051;28;20295;-65
2024/02/05 04:48:21;;;;;;;28.73;6.05;;;9.70;99.90;;;;;;5095518;28;20039;-65
2024/02/05 04:50:47;;;;;;;25.63;5.55;;;9.70;99.90;;;;;;5097290;28;20071;-65
2024/02/05 04:53:13;;;;;;;24.27;5.70;;;9.60;99.90;;;;;;5080109;28;20086;-65
2024/02/05 04:55:41;;;;;;;26.33;6.18;;;9.70;99.90;;;;;;5063128;28;20067;-65
2024/02/05 04:58:10;;;;;;;31.08;6.88;;;9.70;99.90;;;;;;5091793;28;20036;-65
2024/02/05 05:00:36;;;;;;;27.65;6.72;;;9.90;99.90;;;;;;5094957;28;20639;-65
2024/02/05 05:03:02;;;;;;;25.77;5.95;;;9.70;99.90;;;;;;5096617;28;20436;-65
2024/02/05 05:05:28;;;;;;;28.52;7.22;;;9.80;99.90;;;;;;5096066;28;20040;-65
2024/02/05 05:07:54;;;;;;;29.10;7.38;;;9.80;99.90;;;;;;5095035;28;20043;-65
2024/02/05 05:10:19;;;;;;;24.83;4.65;;;9.70;99.90;;;;;;5094542;28;20035;-65
2024/02/05 05:12:45;;;;;;;25.38;6.22;;;9.70;99.90;;;;;;5097990;28;20088;-65
2024/02/05 05:15:17;;;;;;;25.77;5.82;;;9.60;99.90;;;;;;5074706;28;20474;-65
2024/02/05 05:17:45;;;;;;;28.52;6.85;;;9.70;99.90;;;;;;5088559;28;20040;-65
2024/02/05 05:20:12;;;;;;;29.15;6.30;;;9.70;99.90;;;;;;5075684;28;20043;-65
2024/02/05 05:22:38;;;;;;;24.10;5.45;;;9.70;99.90;;;;;;5093211;28;20046;-65
2024/02/05 05:25:07;;;;;;;23.35;5.57;;;9.70;99.90;;;;;;5092497;28;20040;-65
2024/02/05 05:27:33;;;;;;;37.65;7.68;;;9.70;99.90;;;;;;5073759;28;20070;-65
2024/02/05 05:29:58;;;;;;;26.30;6.43;;;9.60;99.90;;;;;;5071929;28;20048;-65
2024/02/05 05:32:24;;;;;;;25.63;6.35;;;9.90;99.90;;;;;;5092136;28;20151;-65
2024/02/05 05:34:50;;;;;;;35.35;6.95;;;9.60;99.90;;;;;;5088635;28;20044;-65
2024/02/05 05:37:15;;;;;;;33.97;6.88;;;9.60;99.90;;;;;;5086561;28;20032;-65
2024/02/05 05:39:41;;;;;;;22.40;5.65;;;9.70;99.90;;;;;;5091537;28;20278;-65
2024/02/05 05:42:08;;;;;;;26.70;6.03;;;9.70;99.90;;;;;;5087741;28;20064;-65
2024/02/05 05:44:36;;;;;;;20.20;5.30;;;9.60;99.90;;;;;;5091828;28;20526;-65
2024/02/05 05:47:02;;;;;;;25.08;6.30;;;9.60;99.90;;;;;;5073724;28;20398;-65
2024/02/05 05:49:31;;;;;;;25.75;6.50;;;9.60;99.90;;;;;;5088888;28;20039;-65
2024/02/05 05:51:56;;;;;;;30.33;5.43;;;9.60;99.90;;;;;;5089064;28;20534;-65
2024/02/05 05:54:22;;;;;;;28.85;6.43;;;9.60;99.90;;;;;;5071109;28;20103;-65
2024/02/05 05:56:48;;;;;;;28.08;6.90;;;9.60;99.90;;;;;;5069650;28;20444;-65
2024/02/05 05:59:15;;;;;;;30.00;6.10;;;9.60;99.90;;;;;;5088899;28;20044;-65
2024/02/05 06:01:41;;;;;;;21.73;5.90;;;9.60;99.90;;;;;;5073022;28;20093;-65
2024/02/05 06:04:06;;;;;;;27.33;6.05;;;9.60;99.90;;;;;;5073726;28;20031;-65
2024/02/05 06:06:33;;;;;;;25.67;6.40;;;9.60;99.90;;;;;;5093854;28;20036;-65
2024/02/05 06:09:07;;;;;;;25.02;5.93;;;9.60;99.90;;;;;;5092060;28;20047;-65
2024/02/05 06:11:33;;;;;;;22.48;5.32;;;9.60;99.90;;;;;;5091521;28;20107;-65
2024/02/05 06:13:58;;;;;;;23.73;5.63;;;9.60;99.90;;;;;;5092493;28;20035;-65
2024/02/05 06:16:24;;;;;;;28.77;6.72;;;9.60;99.90;;;;;;5092034;28;20509;-65
2024/02/05 06:18:50;;;;;;;21.63;6.15;;;9.60;99.90;;;;;;5085182;28;20032;-65
2024/02/05 06:21:17;;;;;;;23.85;5.25;;;9.60;99.90;;;;;;5076186;28;20048;-65
2024/02/05 06:23:43;;;;;;;23.05;5.57;;;9.60;99.90;;;;;;5074362;28;20406;-65
2024/02/05 06:26:10;;;;;;;24.48;5.43;;;9.60;99.90;;;;;;5093603;28;20036;-65
2024/02/05 06:28:37;;;;;;;19.25;4.45;;;9.70;99.90;;;;;;5074474;28;20096;-65
2024/02/05 06:31:06;;;;;;;26.80;6.57;;;9.60;99.90;;;;;;5073946;28;20058;-65
2024/02/05 06:33:32;;;;;;;23.30;5.93;;;9.60;99.90;;;;;;5094434;28;20082;-65
2024/02/05 06:35:58;;;;;;;23.60;4.82;;;9.60;99.90;;;;;;5093651;28;20467;-65
2024/02/05 06:38:24;;;;;;;29.38;6.22;;;9.60;99.90;;;;;;5093393;28;20127;-65
2024/02/05 06:40:52;;;;;;;29.50;6.70;;;9.60;99.90;;;;;;5091380;28;20118;-64
2024/02/05 06:43:18;;;;;;;27.75;6.90;;;9.60;99.90;;;;;;5094011;28;20375;-64
2024/02/05 06:45:44;;;;;;;27.95;6.00;;;9.60;99.90;;;;;;5097548;28;20028;-64
2024/02/05 06:48:09;;;;;;;22.55;5.00;;;9.60;99.90;;;;;;5069872;28;20040;-65
2024/02/05 06:50:35;;;;;;;26.02;5.78;;;9.60;99.90;;;;;;5074568;28;20040;-64
2024/02/05 06:53:00;;;;;;;29.98;5.53;;;9.60;99.90;;;;;;5072022;28;20051;-64
2024/02/05 06:55:27;;;;;;;26.40;6.05;;;9.60;99.90;;;;;;5094719;28;20036;-64
2024/02/05 06:57:52;;;;;;;29.83;5.75;;;9.60;99.90;;;;;;5077497;28;20040;-64
2024/02/05 07:00:18;;;;;;;21.10;4.88;;;9.60;99.90;;;;;;5084292;28;20122;-64
2024/02/05 07:02:44;;;;;;;23.50;5.63;;;9.60;99.90;;;;;;5089581;28;20036;-64
2024/02/05 07:05:10;;;;;;;26.55;4.93;;;9.60;99.90;;;;;;5089192;28;20032;-64
2024/02/05 07:07:36;;;;;;;25.40;6.72;;;9.60;99.90;;;;;;5071082;28;20075;-65
2024/02/05 07:10:03;;;;;;;26.35;5.63;;;9.60;99.90;;;;;;5072464;28;20079;-64
2024/02/05 07:12:29;;;;;;;18.30;4.95;;;9.50;99.90;;;;;;5091412;28;20495;-65
2024/02/05 07:14:54;;;;;;;28.17;5.28;;;9.50;99.90;;;;;;5071683;28;20130;-65
2024/02/05 07:17:31;;;;;;;22.88;6.00;;;9.50;99.90;;;;;;5092572;28;20046;-64
2024/02/05 07:20:01;;;;;;;24.27;5.68;;;9.50;99.90;;;;;;5075579;28;20043;-64
2024/02/05 07:22:30;;;;;;;27.50;4.82;;;9.50;99.90;;;;;;5091881;28;20044;-65
2024/02/05 07:24:57;;;;;;;22.42;5.80;;;9.50;99.90;;;;;;5095888;28;20040;-64
2024/02/05 07:27:25;;;;;;;22.17;6.60;;;9.50;99.90;;;;;;5093816;28;20050;-65
2024/02/05 07:29:51;;;;;;;21.45;5.03;;;9.80;99.90;;;;;;5092346;28;20035;-65
2024/02/05 07:32:17;;;;;;;27.05;5.32;;;9.50;99.90;;;;;;5109445;28;20150;-64
2024/02/05 07:34:42;;;;;;;22.08;5.32;;;9.40;99.90;;;;;;5094036;28;20997;-65
2024/02/05 07:37:08;;;;;;;30.70;5.97;;;9.50;99.90;;;;;;5079274;28;20040;-64
2024/02/05 07:39:34;;;;;;;23.30;5.18;;;9.40;99.90;;;;;;5097506;28;20040;-65
2024/02/05 07:42:00;;;;;;;25.92;6.32;;;9.50;99.90;;;;;;5080087;28;20124;-65
2024/02/05 07:44:26;;;;;;;26.48;6.05;;;9.50;99.90;;;;;;5099518;28;20063;-64
2024/02/05 07:46:52;;;;;;;27.02;5.40;;;9.50;99.90;;;;;;5097350;28;20043;-65
2024/02/05 07:49:18;;;;;;;26.25;4.95;;;9.40;99.90;;;;;;5077418;28;20815;-64
2024/02/05 07:51:45;;;;;;;24.83;6.63;;;9.40;99.90;;;;;;5097553;28;20052;-64
2024/02/05 07:54:12;;;;;;;23.85;4.53;;;9.40;99.90;;;;;;5095766;28;20155;-65
2024/02/05 07:56:37;;;;;;;28.35;6.32;;;9.40;99.90;;;;;;5079956;28;20059;-65
2024/02/05 07:59:03;;;;;;;28.30;6.30;;;9.50;99.90;;;;;;5096562;28;20408;-64
2024/02/05 08:01:30;;;;;;;30.85;7.20;;;9.40;99.90;;;;;;5100959;28;20577;-64
2024/02/05 08:03:55;;;;;;;25.02;5.15;;;9.50;99.90;;;;;;5095450;28;20036;-65
2024/02/05 08:06:23;;;;;;;24.58;7.10;;;9.30;99.90;;;;;;5109813;27;20065;-64
2024/02/05 08:08:49;;;;;;;21.42;4.43;;;9.40;99.90;;;;;;5077982;28;20085;-64
2024/02/05 08:11:16;;;;;;;24.00;5.70;;;9.40;99.90;;;;;;5081808;28;20036;-64
2024/02/05 08:13:42;;;;;;;24.45;5.45;;;9.40;99.90;;;;;;5081923;28;20090;-64
2024/02/05 08:16:07;;;;;;;24.60;4.82;;;9.40;99.90;;;;;;5110130;27;20032;-64
2024/02/05 08:18:33;;;;;;;27.88;5.90;;;9.40;99.90;;;;;;5089914;28;20422;-65
2024/02/05 08:20:59;;;;;;;24.98;5.93;;;9.30;99.90;;;;;;5095240;28;21393;-64
2024/02/05 08:23:25;;;;;;;24.98;4.97;;;9.40;99.90;;;;;;5097469;28;20561;-65
2024/02/05 08:25:51;;;;;;;24.63;5.25;;;9.40;99.90;;;;;;5094323;28;20127;-65
2024/02/05 08:28:16;;;;;;;23.75;4.88;;;9.40;99.90;;;;;;5077898;28;20032;-65
2024/02/05 08:30:42;;;;;;;21.25;5.32;;;9.40;99.90;;;;;;5095061;28;20448;-65
2024/02/05 08:33:07;;;;;;;26.15;5.75;;;9.40;99.90;;;;;;5109194;27;20080;-65
2024/02/05 08:35:33;;;;;;;26.88;6.07;;;9.40;99.90;;;;;;5095205;28;20031;-65
2024/02/05 08:37:59;;;;;;;29.23;6.07;;;9.40;99.90;;;;;;5079461;28;20497;-64
2024/02/05 08:40:25;;;;;;;29.58;5.55;;;9.30;99.90;;;;;;5091401;28;20047;-64
2024/02/05 08:42:50;;;;;;;23.20;5.90;;;9.40;99.90;;;;;;5096142;28;20035;-64
2024/02/05 08:45:18;;;;;;;21.52;5.72;;;9.40;99.90;;;;;;5094571;28;20059;-65
2024/02/05 08:47:45;;;;;;;19.90;4.78;;;9.30;99.90;;;;;;5093452;28;20092;-65
2024/02/05 08:50:11;;;;;;;22.90;6.05;;;9.30;99.90;;;;;;5092399;28;20035;-65
2024/02/05 08:52:37;;;;;;;22.85;5.55;;;9.30;99.90;;;;;;5092629;28;20056;-65
2024/02/05 08:55:05;;;;;;;25.02;5.78;;;9.30;99.90;;;;;;5078693;28;20139;-65
2024/02/05 08:57:30;;;;;;;32.25;7.22;;;9.30;99.90;;;;;;5091245;28;20110;-65
2024/02/05 08:59:56;;;;;;;28.58;6.22;;;9.30;99.90;;;;;;5089769;28;20048;-65
2024/02/05 09:02:21;;;;;;;24.20;6.25;;;9.30;99.90;;;;;;5094657;28;20032;-65
2024/02/05 09:04:47;;;;;;;20.17;5.28;;;9.30;99.90;;;;;;5076388;28;20048;-65
2024/02/05 09:07:13;;;;;;;24.60;5.00;;;9.30;99.90;;;;;;5078436;28;20048;-65
2024/02/05 09:09:39;;;;;;;26.38;6.07;;;9.30;99.90;;;;;;5075029;28;20038;-65
2024/02/05 09:12:05;;;;;;;26.73;5.80;;;9.40;99.90;;;;;;5095599;28;20085;-65
2024/02/05 09:14:31;;;;;;;22.15;5.13;;;9.40;99.90;;;;;;5074520;28;20032;-64
2024/02/05 09:16:56;;;;;;;27.48;5.40;;;9.40;99.90;;;;;;5094529;28;20032;-65
2024/02/05 09:19:22;;;;;;;30.83;5.97;;;9.30;99.90;;;;;;5073742;28;20032;-64
2024/02/05 09:21:48;;;;;;;25.58;6.30;;;9.40;99.90;;;;;;5095277;28;20032;-64
2024/02/05 09:24:13;;;;;;;34.42;6.00;;;9.30;99.90;;;;;;5091400;28;20051;-64
2024/02/05 09:26:39;;;;;;;25.73;5.28;;;9.40;99.90;;;;;;5107743;27;20040;-64
2024/02/05 09:29:04;;;;;;;21.85;6.13;;;9.40;99.90;;;;;;5094080;28;20047;-65
2024/02/05 09:31:30;;;;;;;23.55;5.63;;;9.60;99.90;;;;;;5093610;28;20051;-65
2024/02/05 09:33:56;;;;;;;31.90;5.65;;;9.40;99.90;;;;;;5093976;28;20122;-65
2024/02/05 09:36:22;;;;;;;28.75;5.18;;;9.50;99.90;;;;;;5046042;28;20058;-65
2024/02/05 09:38:47;;;;;;;23.90;5.53;;;9.50;99.90;;;;;;5096334;28;20826;-64
2024/02/05 09:41:20;;;;;;;33.08;6.47;;;9.40;99.90;;;;;;5095196;28;20044;-65
2024/02/05 09:43:47;;;;;;;24.48;5.68;;;9.40;99.90;;;;;;5091768;28;20046;-64
2024/02/05 09:46:15;;;;;;;21.27;4.43;;;9.40;99.90;;;;;;5075259;28;20544;-65
2024/02/05 09:48:43;;;;;;;29.58;5.63;;;9.40;99.90;;;;;;5095127;28;20085;-64
2024/02/05 09:51:12;;;;;;;19.38;4.35;;;9.50;99.90;;;;;;5079352;28;20084;-65
2024/02/05 09:53:40;;;;;;;19.65;5.07;;;9.50;99.90;;;;;;5095777;28;20036;-65
2024/02/05 09:56:07;;;;;;;20.17;5.50;;;9.50;99.90;;;;;;5080433;28;20131;-64
2024/02/05 09:58:33;;;;;;;23.95;5.32;;;9.50;99.90;;;;;;5078586;28;20088;-65
2024/02/05 10:00:59;;;;;;;23.30;5.55;;;9.50;99.90;;;;;;5084144;28;20036;-65
2024/02/05 10:03:27;;;;;;;26.25;6.97;;;9.80;99.90;;;;;;5078313;28;20040;-64
2024/02/05 10:05:57;;;;;;;30.25;5.97;;;9.50;99.90;;;;;;5061287;28;20043;-65
2024/02/05 10:08:26;;;;;;;26.98;5.95;;;9.50;99.90;;;;;;5074263;28;20039;-65
2024/02/05 10:10:54;;;;;;;24.70;5.25;;;9.50;99.90;;;;;;5112328;27;20043;-65
2024/02/05 10:13:20;;;;;;;23.50;5.95;;;9.50;99.90;;;;;;5095999;28;20089;-64
2024/02/05 10:15:46;;;;;;;21.60;5.57;;;9.50;99.90;;;;;;5099707;28;20074;-65
2024/02/05 10:18:11;;;;;;;23.38;5.78;;;9.50;99.90;;;;;;5083335;28;20044;-65
2024/02/05 10:20:38;;;;;;;28.00;5.68;;;9.60;99.90;;;;;;5091711;28;20024;-64
2024/02/05 10:23:04;;;;;;;24.08;5.03;;;9.60;99.90;;;;;;5078256;28;20102;-65
2024/02/05 10:25:29;;;;;;;18.25;5.10;;;9.50;99.90;;;;;;5101317;28;20044;-65
2024/02/05 10:28:03;;;;;;;26.25;5.70;;;9.60;99.90;;;;;;5100939;28;20520;-65
2024/02/05 10:30:30;;;;;;;16.48;4.53;;;9.60;99.90;;;;;;5081772;28;20043;-65
2024/02/05 10:33:00;;;;;;;22.30;4.70;;;9.60;99.90;;;;;;5097882;28;20039;-64
2024/02/05 10:35:26;;;;;;;23.42;5.68;;;9.50;99.90;;;;;;5096953;28;20039;-64
2024/02/05 10:37:52;;;;;;;19.27;4.38;;;9.60;99.90;;;;;;5096794;28;20319;-65
2024/02/05 10:40:18;;;;;;;22.70;4.55;;;9.60;99.90;;;;;;5078954;28;20036;-65
2024/02/05 10:42:44;;;;;;;19.90;4.88;;;9.50;99.90;;;;;;5097269;28;20568;-65
2024/02/05 10:45:11;;;;;;;21.10;5.78;;;9.50;99.90;;;;;;5098622;28;20063;-65
2024/02/05 10:47:37;;;;;;;26.58;4.88;;;9.50;99.90;;;;;;5110289;28;20043;-65
2024/02/05 10:50:10;;;;;;;22.27;5.68;;;9.60;99.90;;;;;;5074390;28;20047;-65
2024/02/05 10:52:39;;;;;;;18.55;4.80;;;9.50;99.90;;;;;;5095504;28;20501;-65
2024/02/05 10:55:08;;;;;;;26.90;5.10;;;9.50;99.90;;;;;;5095641;28;20468;-65
2024/02/05 10:57:38;;;;;;;24.50;6.82;;;9.50;99.90;;;;;;5091525;28;20463;-64
2024/02/05 11:00:07;;;;;;;25.92;4.72;;;9.60;99.90;;;;;;5093666;28;20039;-65
2024/02/05 11:02:36;;;;;;;15.65;4.00;;;9.50;99.90;;;;;;5069765;28;20044;-64
2024/02/05 11:05:03;;;;;;;22.52;5.40;;;9.50;99.90;;;;;;5091312;28;20044;-64
2024/02/05 11:07:38;;;;;;;25.10;5.28;;;9.50;99.90;;;;;;5091803;28;20063;-65
2024/02/05 11:10:08;;;;;;;19.77;4.37;;;9.50;99.90;;;;;;5056448;28;20048;-65
2024/02/05 11:12:36;;;;;;;19.17;4.63;;;9.50;99.90;;;;;;5091560;28;20057;-64
2024/02/05 11:15:06;;;;;;;29.17;7.20;;;9.50;99.90;;;;;;5097415;28;20039;-65
2024/02/05 11:17:37;;;;;;;24.33;5.95;;;9.50;99.90;;;;;;5079419;28;20032;-65
2024/02/05 11:20:08;;;;;;;25.10;5.60;;;9.50;99.90;;;;;;5082213;28;20043;-65
2024/02/05 11:22:36;;;;;;;21.50;5.32;;;9.50;99.90;;;;;;5101745;28;20082;-65
2024/02/05 11:25:06;;;;;;;27.92;5.72;;;9.50;99.90;;;;;;5080124;28;20043;-65
2024/02/05 11:27:32;;;;;;;22.88;4.72;;;9.50;99.90;;;;;;5078327;28;20126;-65
2024/02/05 11:29:57;;;;;;;22.95;5.70;;;9.50;99.90;;;;;;5094490;28;20595;-65
2024/02/05 11:32:49;;;;;;;28.65;6.43;;;9.50;99.90;;;;;;5077215;28;20574;-65
2024/02/05 11:35:15;;;;;;;24.05;5.40;;;9.50;99.90;;;;;;5102901;27;20063;-65
2024/02/05 11:37:44;;;;;;;20.63;5.03;;;9.50;99.90;;;;;;5099034;28;20032;-65
2024/02/05 11:40:22;;;;;;;21.42;5.35;;;9.50;99.90;;;;;;5096899;28;20165;-65
2024/02/05 11:42:58;;;;;;;23.83;4.65;;;9.40;99.90;;;;;;5082186;28;20047;-65
2024/02/05 11:45:26;;;;;;;24.30;4.93;;;9.40;99.90;;;;;;5098077;28;20067;-65
2024/02/05 11:47:51;;;;;;;25.60;6.68;;;9.40;99.90;;;;;;5097941;28;20104;-64
2024/02/05 11:50:19;;;;;;;24.48;5.72;;;9.40;99.90;;;;;;5081988;28;20506;-65
2024/02/05 11:52:46;;;;;;;24.80;5.38;;;9.40;99.90;;;;;;5095550;28;20126;-65
2024/02/05 11:55:15;;;;;;;26.75;6.22;;;9.40;99.90;;;;;;5079727;28;20044;-65
2024/02/05 11:57:43;;;;;;;24.35;5.90;;;9.40;99.90;;;;;;5098376;28;20039;-65
2024/02/05 12:00:10;;;;;;;24.67;4.82;;;9.30;99.90;;;;;;5096724;28;20097;-65
2024/02/05 12:02:36;;;;;;;27.45;5.20;;;9.40;99.90;;;;;;5094393;28;20074;-65
2024/02/05 12:05:03;;;;;;;23.48;5.18;;;9.30;99.90;;;;;;5094415;28;20501;-64
2024/02/05 12:07:29;;;;;;;21.60;5.15;;;9.30;99.90;;;;;;5097361;28;20538;-65
2024/02/05 12:09:57;;;;;;;23.17;4.93;;;9.30;99.90;;;;;;5080502;28;20039;-65
2024/02/05 12:12:25;;;;;;;22.20;5.35;;;9.30;99.90;;;;;;5094236;28;20040;-65
2024/02/05 12:14:50;;;;;;;25.27;6.68;;;9.40;99.90;;;;;;5095498;28;20039;-64
2024/02/05 12:17:19;;;;;;;24.55;4.90;;;9.40;99.90;;;;;;5093795;28;20524;-64
2024/02/05 12:19:45;;;;;;;26.73;4.80;;;9.30;99.90;;;;;;5095394;28;20035;-64
2024/02/05 12:22:11;;;;;;;27.15;5.80;;;9.30;99.90;;;;;;5092759;28;20066;-64
2024/02/05 12:24:38;;;;;;;20.65;6.22;;;9.30;99.90;;;;;;5091204;28;20678;-65
2024/02/05 12:27:04;;;;;;;24.50;4.75;;;9.40;99.90;;;;;;5108597;27;20041;-64
2024/02/05 12:29:30;;;;;;;28.55;5.55;;;9.40;99.90;;;;;;5096059;28;20512;-65
2024/02/05 12:32:06;;;;;;;22.75;5.70;;;9.30;99.90;;;;;;5096775;28;20044;-65
2024/02/05 12:34:33;;;;;;;20.65;4.90;;;9.30;99.90;;;;;;5099451;28;20032;-65
2024/02/05 12:36:59;;;;;;;20.02;4.70;;;9.40;99.90;;;;;;5099391;28;21498;-65
2024/02/05 12:39:25;;;;;;;24.73;5.15;;;9.40;99.90;;;;;;5094747;28;20139;-65